Pagina principale
METAR-TAF:

METAR-TAF

Aeroporti :

Aeroporto Internazionale delle Seychelles

Victoria, Mahé, Seychelles

latitudine: 04-40S, longitudine: 055-31E, altezza: 3 m

Osservazione

Il bollettino è stato emesso 22 minuti fa, alle 06:00 UTC
Vento 5 kt da est
Temperature 31°C
Umidità 71%
Pressione 1013 hPa
Visibilità 10 km o più
Nubi sparse ad un'altezza di 2000 ft

METAR: FSIA 210600Z 08005KT 9999 SCT020 31/25 Q1013 NOSIG

Ora: 10:22 (06:22 UTC)

Previsione

Il bollettino è stato emesso 1 ora e 21 minuti fa, alle 05:01 UTC
Previsione valida dal 21 alle 06 UTC al 22 alle 06 UTC
Vento 5 kt da est
Visibilità 10 km o più
Nubi sparse ad un'altezza di 2200 ft
Temporaneamente
dal 21 alle 18 UTC al 22 alle 03 UTC
Visibilità: 8000 m
Poco nuvoloso ad un'altezza di 1500 ft
Nuvoloso ad un'altezza di 1800 ft
rovesci di pioggia

TAF: FSIA 210501Z 2106/2206 08005KT 9999 SCT022 TEMPO 2118/2203 8000 -SHRA FEW015 BKN018

Osservazioni e previsioni meteorologiche di più di 4000 aeroporti (messaggi METAR e TAF).

Le stazioni disponibili sono rappresentate dai dischi gialli e rossi sulla carta.

Puntare il mouse per vedere il nome della stazione.

Clicca sopra per visualizzare le osservazioni e previsioni meteorologiche.

Per cambiare la mappa : fare clic sui pulsanti verdi con una croce nera per ingrandire, il pulsante verde con un trattino per diminuire, o sulla freccia verde per le mappe adiacenti.


METAR-TAF: